sensor_id;sensor_type;location;lat;lon;timestamp;temperature;humidity
44627;DHT22;30333;52.192;8.834;2022-10-30T00:07:10;15.40;99.90
44627;DHT22;30333;52.192;8.834;2022-10-30T00:09:37;15.40;99.90
44627;DHT22;30333;52.192;8.834;2022-10-30T00:12:04;15.40;99.90
44627;DHT22;30333;52.192;8.834;2022-10-30T00:14:32;15.30;99.90
44627;DHT22;30333;52.192;8.834;2022-10-30T00:21:53;15.30;99.90
44627;DHT22;30333;52.192;8.834;2022-10-30T00:24:22;15.30;99.90
44627;DHT22;30333;52.192;8.834;2022-10-30T00:26:49;15.30;99.90
44627;DHT22;30333;52.192;8.834;2022-10-30T00:31:44;15.20;99.90
44627;DHT22;30333;52.192;8.834;2022-10-30T00:34:11;14.90;99.90
44627;DHT22;30333;52.192;8.834;2022-10-30T00:36:38;15.20;99.90
44627;DHT22;30333;52.192;8.834;2022-10-30T00:39:05;15.20;99.90
44627;DHT22;30333;52.192;8.834;2022-10-30T00:41:32;15.20;99.90
44627;DHT22;30333;52.192;8.834;2022-10-30T00:46:28;15.30;99.90
44627;DHT22;30333;52.192;8.834;2022-10-30T00:49:00;15.20;99.90
44627;DHT22;30333;52.192;8.834;2022-10-30T00:51:28;15.30;99.90
44627;DHT22;30333;52.192;8.834;2022-10-30T00:53:58;15.20;99.90
44627;DHT22;30333;52.192;8.834;2022-10-30T00:56:25;15.20;99.90
44627;DHT22;30333;52.192;8.834;2022-10-30T00:58:56;15.30;99.90
44627;DHT22;30333;52.192;8.834;2022-10-30T01:01:25;15.30;99.90
44627;DHT22;30333;52.192;8.834;2022-10-30T01:03:57;15.20;99.90
44627;DHT22;30333;52.192;8.834;2022-10-30T01:06:27;15.20;99.90
44627;DHT22;30333;52.192;8.834;2022-10-30T01:08:54;15.20;99.90
44627;DHT22;30333;52.192;8.834;2022-10-30T01:13:54;15.20;99.90
44627;DHT22;30333;52.192;8.834;2022-10-30T01:19:25;15.20;99.90
44627;DHT22;30333;52.192;8.834;2022-10-30T01:22:13;15.20;99.90
44627;DHT22;30333;52.192;8.834;2022-10-30T01:24:51;15.20;99.90
44627;DHT22;30333;52.192;8.834;2022-10-30T01:27:37;15.20;99.90
44627;DHT22;30333;52.192;8.834;2022-10-30T01:30:19;15.10;99.90
44627;DHT22;30333;52.192;8.834;2022-10-30T01:33:03;15.60;99.90
44627;DHT22;30333;52.192;8.834;2022-10-30T01:35:45;15.30;99.90
44627;DHT22;30333;52.192;8.834;2022-10-30T01:38:18;15.10;99.90
44627;DHT22;30333;52.192;8.834;2022-10-30T01:43:14;15.10;99.90
44627;DHT22;30333;52.192;8.834;2022-10-30T01:46:19;15.10;99.90
44627;DHT22;30333;52.192;8.834;2022-10-30T01:48:57;15.10;99.90
44627;DHT22;30333;52.192;8.834;2022-10-30T01:51:38;15.10;99.90
44627;DHT22;30333;52.192;8.834;2022-10-30T01:54:17;15.10;99.90
44627;DHT22;30333;52.192;8.834;2022-10-30T01:56:56;15.10;99.90
44627;DHT22;30333;52.192;8.834;2022-10-30T01:59:29;15.10;99.90
44627;DHT22;30333;52.192;8.834;2022-10-30T02:04:25;15.20;99.90
44627;DHT22;30333;52.192;8.834;2022-10-30T02:06:54;15.20;99.90
44627;DHT22;30333;52.192;8.834;2022-10-30T02:14:31;15.10;99.90
44627;DHT22;30333;52.192;8.834;2022-10-30T02:17:01;16.60;99.90
44627;DHT22;30333;52.192;8.834;2022-10-30T02:21:58;15.10;99.90
44627;DHT22;30333;52.192;8.834;2022-10-30T02:34:14;15.10;99.90
44627;DHT22;30333;52.192;8.834;2022-10-30T02:39:10;15.10;99.90
44627;DHT22;30333;52.192;8.834;2022-10-30T02:48:59;15.10;99.90
44627;DHT22;30333;52.192;8.834;2022-10-30T02:53:53;15.10;99.90
44627;DHT22;30333;52.192;8.834;2022-10-30T02:56:21;15.80;99.90
44627;DHT22;30333;52.192;8.834;2022-10-30T03:01:17;15.10;99.90
44627;DHT22;30333;52.192;8.834;2022-10-30T03:06:14;15.00;99.90
44627;DHT22;30333;52.192;8.834;2022-10-30T03:11:10;15.10;99.90
44627;DHT22;30333;52.192;8.834;2022-10-30T03:13:39;15.00;99.90
44627;DHT22;30333;52.192;8.834;2022-10-30T03:16:08;15.60;99.90
44627;DHT22;30333;52.192;8.834;2022-10-30T03:21:05;14.90;99.90
44627;DHT22;30333;52.192;8.834;2022-10-30T03:23:33;14.90;99.90
44627;DHT22;30333;52.192;8.834;2022-10-30T03:28:29;14.80;99.90
44627;DHT22;30333;52.192;8.834;2022-10-30T03:31:01;14.80;99.90
44627;DHT22;30333;52.192;8.834;2022-10-30T03:45:46;13.40;99.90
44627;DHT22;30333;52.192;8.834;2022-10-30T03:48:16;14.80;99.90
44627;DHT22;30333;52.192;8.834;2022-10-30T03:50:43;14.80;99.90
44627;DHT22;30333;52.192;8.834;2022-10-30T03:53:10;16.50;99.90
44627;DHT22;30333;52.192;8.834;2022-10-30T03:55:37;14.80;99.90
44627;DHT22;30333;52.192;8.834;2022-10-30T03:58:05;14.80;99.90
44627;DHT22;30333;52.192;8.834;2022-10-30T04:00:33;14.80;99.90
44627;DHT22;30333;52.192;8.834;2022-10-30T04:05:30;14.70;99.90
44627;DHT22;30333;52.192;8.834;2022-10-30T04:07:58;14.80;99.90
44627;DHT22;30333;52.192;8.834;2022-10-30T04:12:58;14.80;99.90
44627;DHT22;30333;52.192;8.834;2022-10-30T04:20:22;14.70;99.90
44627;DHT22;30333;52.192;8.834;2022-10-30T04:22:55;14.70;99.90
44627;DHT22;30333;52.192;8.834;2022-10-30T04:32:52;14.70;99.90
44627;DHT22;30333;52.192;8.834;2022-10-30T04:35:21;14.70;99.90
44627;DHT22;30333;52.192;8.834;2022-10-30T04:37:51;15.40;99.90
44627;DHT22;30333;52.192;8.834;2022-10-30T04:40:20;14.70;99.90
44627;DHT22;30333;52.192;8.834;2022-10-30T04:47:41;14.60;99.90
44627;DHT22;30333;52.192;8.834;2022-10-30T04:50:09;14.10;99.90
44627;DHT22;30333;52.192;8.834;2022-10-30T04:55:05;14.60;99.90
44627;DHT22;30333;52.192;8.834;2022-10-30T04:57:33;14.60;99.90
44627;DHT22;30333;52.192;8.834;2022-10-30T05:14:47;14.60;99.90
44627;DHT22;30333;52.192;8.834;2022-10-30T05:17:14;14.80;99.90
44627;DHT22;30333;52.192;8.834;2022-10-30T05:19:41;15.30;99.90
44627;DHT22;30333;52.192;8.834;2022-10-30T05:27:03;14.50;99.90
44627;DHT22;30333;52.192;8.834;2022-10-30T05:31:58;14.40;99.90
44627;DHT22;30333;52.192;8.834;2022-10-30T05:39:20;14.40;99.90
44627;DHT22;30333;52.192;8.834;2022-10-30T05:44:14;14.30;99.90
44627;DHT22;30333;52.192;8.834;2022-10-30T05:46:54;14.30;99.90
44627;DHT22;30333;52.192;8.834;2022-10-30T05:49:22;14.60;99.90
44627;DHT22;30333;52.192;8.834;2022-10-30T05:54:16;14.20;99.90
44627;DHT22;30333;52.192;8.834;2022-10-30T06:04:05;14.10;99.90
44627;DHT22;30333;52.192;8.834;2022-10-30T06:06:33;14.10;99.90
44627;DHT22;30333;52.192;8.834;2022-10-30T06:18:49;13.90;99.90
44627;DHT22;30333;52.192;8.834;2022-10-30T06:21:15;13.90;99.90
44627;DHT22;30333;52.192;8.834;2022-10-30T06:23:44;13.80;99.90
44627;DHT22;30333;52.192;8.834;2022-10-30T06:31:05;13.80;99.90
44627;DHT22;30333;52.192;8.834;2022-10-30T06:33:32;13.80;99.90
44627;DHT22;30333;52.192;8.834;2022-10-30T06:40:54;13.70;99.90
44627;DHT22;30333;52.192;8.834;2022-10-30T06:55:39;13.60;99.90
44627;DHT22;30333;52.192;8.834;2022-10-30T06:58:07;13.60;99.90
44627;DHT22;30333;52.192;8.834;2022-10-30T07:05:30;13.70;99.90
44627;DHT22;30333;52.192;8.834;2022-10-30T07:07:57;13.90;99.90
44627;DHT22;30333;52.192;8.834;2022-10-30T07:12:55;13.70;99.90
44627;DHT22;30333;52.192;8.834;2022-10-30T07:15:25;14.30;99.90
44627;DHT22;30333;52.192;8.834;2022-10-30T07:17:53;13.70;99.90
44627;DHT22;30333;52.192;8.834;2022-10-30T07:27:43;13.80;99.90
44627;DHT22;30333;52.192;8.834;2022-10-30T07:30:11;13.80;99.90
44627;DHT22;30333;52.192;8.834;2022-10-30T07:32:40;13.80;99.90
44627;DHT22;30333;52.192;8.834;2022-10-30T07:35:08;13.90;99.90
44627;DHT22;30333;52.192;8.834;2022-10-30T07:40:03;14.00;99.90
44627;DHT22;30333;52.192;8.834;2022-10-30T07:42:37;14.00;99.90
44627;DHT22;30333;52.192;8.834;2022-10-30T07:45:04;14.60;99.90
44627;DHT22;30333;52.192;8.834;2022-10-30T07:50:00;14.10;99.90
44627;DHT22;30333;52.192;8.834;2022-10-30T07:52:30;14.20;99.90
44627;DHT22;30333;52.192;8.834;2022-10-30T07:54:57;14.20;99.90
44627;DHT22;30333;52.192;8.834;2022-10-30T08:07:14;14.40;99.90
44627;DHT22;30333;52.192;8.834;2022-10-30T08:12:08;14.50;99.90
44627;DHT22;30333;52.192;8.834;2022-10-30T08:19:30;14.60;99.90
44627;DHT22;30333;52.192;8.834;2022-10-30T08:24:27;14.60;99.90
44627;DHT22;30333;52.192;8.834;2022-10-30T08:26:54;14.80;99.90
44627;DHT22;30333;52.192;8.834;2022-10-30T08:29:20;14.70;99.90
44627;DHT22;30333;52.192;8.834;2022-10-30T08:31:47;14.70;99.90
44627;DHT22;30333;52.192;8.834;2022-10-30T08:36:42;14.70;99.90
44627;DHT22;30333;52.192;8.834;2022-10-30T08:39:14;14.70;99.90
44627;DHT22;30333;52.192;8.834;2022-10-30T08:41:43;14.90;99.90
44627;DHT22;30333;52.192;8.834;2022-10-30T08:44:10;14.90;99.90
44627;DHT22;30333;52.192;8.834;2022-10-30T08:46:37;14.90;99.90
44627;DHT22;30333;52.192;8.834;2022-10-30T08:51:31;15.00;99.90
44627;DHT22;30333;52.192;8.834;2022-10-30T08:53:58;15.00;99.90
44627;DHT22;30333;52.192;8.834;2022-10-30T08:58:54;15.10;99.90
44627;DHT22;30333;52.192;8.834;2022-10-30T09:16:06;15.30;99.90
44627;DHT22;30333;52.192;8.834;2022-10-30T09:18:33;15.40;99.90
44627;DHT22;30333;52.192;8.834;2022-10-30T09:21:00;15.40;99.90
44627;DHT22;30333;52.192;8.834;2022-10-30T09:23:30;15.50;99.90
44627;DHT22;30333;52.192;8.834;2022-10-30T09:28:24;15.60;99.90
44627;DHT22;30333;52.192;8.834;2022-10-30T09:30:51;15.80;99.90
44627;DHT22;30333;52.192;8.834;2022-10-30T09:33:23;15.90;99.90
44627;DHT22;30333;52.192;8.834;2022-10-30T09:40:57;16.10;99.90
44627;DHT22;30333;52.192;8.834;2022-10-30T09:43:34;16.10;99.90
44627;DHT22;30333;52.192;8.834;2022-10-30T09:46:18;16.30;99.90
44627;DHT22;30333;52.192;8.834;2022-10-30T09:49:02;16.30;99.90
44627;DHT22;30333;52.192;8.834;2022-10-30T09:51:55;16.60;99.90
44627;DHT22;30333;52.192;8.834;2022-10-30T09:54:33;16.40;99.90
44627;DHT22;30333;52.192;8.834;2022-10-30T09:57:10;16.50;99.90
44627;DHT22;30333;52.192;8.834;2022-10-30T09:59:50;16.90;99.90
44627;DHT22;30333;52.192;8.834;2022-10-30T10:02:31;16.70;99.90
44627;DHT22;30333;52.192;8.834;2022-10-30T10:05:06;16.70;99.90
44627;DHT22;30333;52.192;8.834;2022-10-30T10:07:40;16.90;99.90
44627;DHT22;30333;52.192;8.834;2022-10-30T10:10:14;16.90;99.90
44627;DHT22;30333;52.192;8.834;2022-10-30T10:12:44;17.00;99.90
44627;DHT22;30333;52.192;8.834;2022-10-30T10:15:18;17.10;99.90
44627;DHT22;30333;52.192;8.834;2022-10-30T10:17:46;17.10;99.90
44627;DHT22;30333;52.192;8.834;2022-10-30T10:20:19;18.50;99.90
44627;DHT22;30333;52.192;8.834;2022-10-30T10:22:52;17.30;99.90
44627;DHT22;30333;52.192;8.834;2022-10-30T10:27:58;17.50;99.90
44627;DHT22;30333;52.192;8.834;2022-10-30T10:30:31;17.50;99.90
44627;DHT22;30333;52.192;8.834;2022-10-30T10:33:13;17.60;99.90
44627;DHT22;30333;52.192;8.834;2022-10-30T10:35:51;17.70;99.90
44627;DHT22;30333;52.192;8.834;2022-10-30T10:38:27;17.70;99.90
44627;DHT22;30333;52.192;8.834;2022-10-30T10:41:04;17.90;99.90
44627;DHT22;30333;52.192;8.834;2022-10-30T10:43:43;18.00;99.90
44627;DHT22;30333;52.192;8.834;2022-10-30T10:46:32;18.00;99.90
44627;DHT22;30333;52.192;8.834;2022-10-30T10:49:11;18.10;99.90
44627;DHT22;30333;52.192;8.834;2022-10-30T10:51:44;18.60;99.90
44627;DHT22;30333;52.192;8.834;2022-10-30T10:54:15;18.20;99.90
44627;DHT22;30333;52.192;8.834;2022-10-30T10:56:46;18.20;99.90
44627;DHT22;30333;52.192;8.834;2022-10-30T10:59:16;18.30;99.90
44627;DHT22;30333;52.192;8.834;2022-10-30T11:01:49;18.30;99.90
44627;DHT22;30333;52.192;8.834;2022-10-30T11:04:26;18.40;99.90
44627;DHT22;30333;52.192;8.834;2022-10-30T11:06:57;18.40;99.90
44627;DHT22;30333;52.192;8.834;2022-10-30T11:09:25;18.50;99.90
44627;DHT22;30333;52.192;8.834;2022-10-30T11:14:25;18.60;99.90
44627;DHT22;30333;52.192;8.834;2022-10-30T11:17:03;18.60;99.90
44627;DHT22;30333;52.192;8.834;2022-10-30T11:19:32;18.60;99.90
44627;DHT22;30333;52.192;8.834;2022-10-30T11:22:01;18.70;99.90
44627;DHT22;30333;52.192;8.834;2022-10-30T11:24:30;19.30;99.90
44627;DHT22;30333;52.192;8.834;2022-10-30T11:27:09;18.70;99.90
44627;DHT22;30333;52.192;8.834;2022-10-30T11:29:48;18.90;99.90
44627;DHT22;30333;52.192;8.834;2022-10-30T11:32:17;18.90;99.90
44627;DHT22;30333;52.192;8.834;2022-10-30T11:34:45;18.90;99.90
44627;DHT22;30333;52.192;8.834;2022-10-30T11:37:29;19.00;99.90
44627;DHT22;30333;52.192;8.834;2022-10-30T11:40:02;19.00;99.90
44627;DHT22;30333;52.192;8.834;2022-10-30T11:42:29;20.30;99.90
44627;DHT22;30333;52.192;8.834;2022-10-30T11:44:57;19.10;99.90
44627;DHT22;30333;52.192;8.834;2022-10-30T11:47:28;19.10;99.90
44627;DHT22;30333;52.192;8.834;2022-10-30T11:49:57;19.20;99.90
44627;DHT22;30333;52.192;8.834;2022-10-30T11:52:26;19.20;99.90
44627;DHT22;30333;52.192;8.834;2022-10-30T11:54:55;20.60;99.90
44627;DHT22;30333;52.192;8.834;2022-10-30T11:57:28;19.30;99.90
44627;DHT22;30333;52.192;8.834;2022-10-30T11:59:58;19.40;99.90
44627;DHT22;30333;52.192;8.834;2022-10-30T12:02:40;19.40;99.90
44627;DHT22;30333;52.192;8.834;2022-10-30T12:05:37;19.50;99.90
44627;DHT22;30333;52.192;8.834;2022-10-30T12:08:17;19.50;99.90
44627;DHT22;30333;52.192;8.834;2022-10-30T12:10:46;19.50;99.90
44627;DHT22;30333;52.192;8.834;2022-10-30T12:13:21;19.60;99.90
44627;DHT22;30333;52.192;8.834;2022-10-30T12:15:50;19.60;99.90
44627;DHT22;30333;52.192;8.834;2022-10-30T12:18:20;19.60;99.90
44627;DHT22;30333;52.192;8.834;2022-10-30T12:20:51;19.60;99.90
44627;DHT22;30333;52.192;8.834;2022-10-30T12:23:21;20.00;99.90
44627;DHT22;30333;52.192;8.834;2022-10-30T12:25:52;19.70;99.90
44627;DHT22;30333;52.192;8.834;2022-10-30T12:28:21;19.70;99.90
44627;DHT22;30333;52.192;8.834;2022-10-30T12:30:51;19.70;99.90
44627;DHT22;30333;52.192;8.834;2022-10-30T12:33:22;19.70;99.90
44627;DHT22;30333;52.192;8.834;2022-10-30T12:35:50;19.70;99.90
44627;DHT22;30333;52.192;8.834;2022-10-30T12:38:23;19.80;99.90
44627;DHT22;30333;52.192;8.834;2022-10-30T12:40:59;19.80;99.90
44627;DHT22;30333;52.192;8.834;2022-10-30T12:43:32;19.80;99.90
44627;DHT22;30333;52.192;8.834;2022-10-30T12:46:12;20.80;99.90
44627;DHT22;30333;52.192;8.834;2022-10-30T12:48:46;19.90;99.90
44627;DHT22;30333;52.192;8.834;2022-10-30T12:51:19;19.90;99.90
44627;DHT22;30333;52.192;8.834;2022-10-30T12:53:55;19.90;99.90
44627;DHT22;30333;52.192;8.834;2022-10-30T12:56:28;19.90;99.90
44627;DHT22;30333;52.192;8.834;2022-10-30T12:59:05;20.80;99.90
44627;DHT22;30333;52.192;8.834;2022-10-30T13:01:40;19.90;99.90
44627;DHT22;30333;52.192;8.834;2022-10-30T13:04:17;20.00;99.90
44627;DHT22;30333;52.192;8.834;2022-10-30T13:06:48;20.00;99.90
44627;DHT22;30333;52.192;8.834;2022-10-30T13:09:20;20.00;99.90
44627;DHT22;30333;52.192;8.834;2022-10-30T13:11:51;20.00;99.90
44627;DHT22;30333;52.192;8.834;2022-10-30T13:14:26;20.00;99.90
44627;DHT22;30333;52.192;8.834;2022-10-30T13:16:55;20.10;99.90
44627;DHT22;30333;52.192;8.834;2022-10-30T13:19:23;20.10;99.90
44627;DHT22;30333;52.192;8.834;2022-10-30T13:21:56;20.10;99.90
44627;DHT22;30333;52.192;8.834;2022-10-30T13:24:34;20.80;99.90
44627;DHT22;30333;52.192;8.834;2022-10-30T13:27:11;20.10;99.90
44627;DHT22;30333;52.192;8.834;2022-10-30T13:29:44;20.10;99.90
44627;DHT22;30333;52.192;8.834;2022-10-30T13:32:25;20.10;99.90
44627;DHT22;30333;52.192;8.834;2022-10-30T13:35:01;20.10;99.90
44627;DHT22;30333;52.192;8.834;2022-10-30T13:37:34;20.10;99.90
44627;DHT22;30333;52.192;8.834;2022-10-30T13:40:15;20.10;99.90
44627;DHT22;30333;52.192;8.834;2022-10-30T13:42:57;22.20;99.90
44627;DHT22;30333;52.192;8.834;2022-10-30T13:48:28;20.10;99.90
44627;DHT22;30333;52.192;8.834;2022-10-30T13:51:23;20.10;99.90
44627;DHT22;30333;52.192;8.834;2022-10-30T13:53:59;20.10;99.90
44627;DHT22;30333;52.192;8.834;2022-10-30T13:56:29;20.10;99.90
44627;DHT22;30333;52.192;8.834;2022-10-30T13:59:04;20.10;99.90
44627;DHT22;30333;52.192;8.834;2022-10-30T14:01:35;20.10;99.90
44627;DHT22;30333;52.192;8.834;2022-10-30T14:04:08;20.10;99.90
44627;DHT22;30333;52.192;8.834;2022-10-30T14:06:43;20.10;99.90
44627;DHT22;30333;52.192;8.834;2022-10-30T14:09:20;20.10;99.90
44627;DHT22;30333;52.192;8.834;2022-10-30T14:11:53;20.10;99.90
44627;DHT22;30333;52.192;8.834;2022-10-30T14:14:29;20.10;99.90
44627;DHT22;30333;52.192;8.834;2022-10-30T14:17:13;20.10;99.90
44627;DHT22;30333;52.192;8.834;2022-10-30T14:23:06;20.10;99.90
44627;DHT22;30333;52.192;8.834;2022-10-30T14:28:02;20.10;99.90
44627;DHT22;30333;52.192;8.834;2022-10-30T14:30:33;20.00;99.90
44627;DHT22;30333;52.192;8.834;2022-10-30T14:35:37;20.00;99.90
44627;DHT22;30333;52.192;8.834;2022-10-30T14:38:21;20.00;99.90
44627;DHT22;30333;52.192;8.834;2022-10-30T14:41:20;20.00;99.90
44627;DHT22;30333;52.192;8.834;2022-10-30T14:44:10;20.00;99.90
44627;DHT22;30333;52.192;8.834;2022-10-30T14:46:46;19.80;99.90
44627;DHT22;30333;52.192;8.834;2022-10-30T14:49:33;21.60;99.90
44627;DHT22;30333;52.192;8.834;2022-10-30T14:52:18;19.80;99.90
44627;DHT22;30333;52.192;8.834;2022-10-30T14:54:53;19.80;99.90
44627;DHT22;30333;52.192;8.834;2022-10-30T14:57:43;21.70;99.90
44627;DHT22;30333;52.192;8.834;2022-10-30T15:00:28;19.70;99.90
44627;DHT22;30333;52.192;8.834;2022-10-30T15:02:57;22.20;99.90
44627;DHT22;30333;52.192;8.834;2022-10-30T15:05:40;19.60;99.90
44627;DHT22;30333;52.192;8.834;2022-10-30T15:11:19;19.50;99.90
44627;DHT22;30333;52.192;8.834;2022-10-30T15:13:53;19.40;99.90
44627;DHT22;30333;52.192;8.834;2022-10-30T15:16:23;19.40;99.90
44627;DHT22;30333;52.192;8.834;2022-10-30T15:18:56;19.30;99.90
44627;DHT22;30333;52.192;8.834;2022-10-30T15:23:57;19.20;99.90
44627;DHT22;30333;52.192;8.834;2022-10-30T15:26:25;19.90;99.90
44627;DHT22;30333;52.192;8.834;2022-10-30T15:28:57;19.10;99.90
44627;DHT22;30333;52.192;8.834;2022-10-30T15:31:27;19.20;99.90
44627;DHT22;30333;52.192;8.834;2022-10-30T15:33:55;19.10;99.90
44627;DHT22;30333;52.192;8.834;2022-10-30T15:36:27;18.90;99.90
44627;DHT22;30333;52.192;8.834;2022-10-30T15:39:07;18.90;99.90
44627;DHT22;30333;52.192;8.834;2022-10-30T15:41:41;18.80;99.90
44627;DHT22;30333;52.192;8.834;2022-10-30T15:44:10;18.70;99.90
44627;DHT22;30333;52.192;8.834;2022-10-30T15:46:39;18.60;99.90
44627;DHT22;30333;52.192;8.834;2022-10-30T15:49:11;18.60;99.90
44627;DHT22;30333;52.192;8.834;2022-10-30T15:51:43;18.50;99.90
44627;DHT22;30333;52.192;8.834;2022-10-30T15:54:12;18.50;99.90
44627;DHT22;30333;52.192;8.834;2022-10-30T15:56:44;18.40;99.90
44627;DHT22;30333;52.192;8.834;2022-10-30T15:59:31;18.30;99.90
44627;DHT22;30333;52.192;8.834;2022-10-30T16:02:01;18.20;99.90
44627;DHT22;30333;52.192;8.834;2022-10-30T16:04:41;18.10;99.90
44627;DHT22;30333;52.192;8.834;2022-10-30T16:15:24;17.90;99.90
44627;DHT22;30333;52.192;8.834;2022-10-30T16:18:29;17.80;99.90
44627;DHT22;30333;52.192;8.834;2022-10-30T16:21:02;17.80;99.90
44627;DHT22;30333;52.192;8.834;2022-10-30T16:23:40;17.70;99.90
44627;DHT22;30333;52.192;8.834;2022-10-30T16:26:36;17.60;99.90
44627;DHT22;30333;52.192;8.834;2022-10-30T16:29:32;17.60;99.90
44627;DHT22;30333;52.192;8.834;2022-10-30T16:32:20;17.50;99.90
44627;DHT22;30333;52.192;8.834;2022-10-30T16:34:54;17.40;99.90
44627;DHT22;30333;52.192;8.834;2022-10-30T16:37:33;17.30;99.90
44627;DHT22;30333;52.192;8.834;2022-10-30T16:43:39;17.20;99.90
44627;DHT22;30333;52.192;8.834;2022-10-30T16:49:45;17.10;99.90
44627;DHT22;30333;52.192;8.834;2022-10-30T16:58:23;17.30;99.90
44627;DHT22;30333;52.192;8.834;2022-10-30T17:00:52;16.90;99.90
44627;DHT22;30333;52.192;8.834;2022-10-30T17:03:21;16.80;99.90
44627;DHT22;30333;52.192;8.834;2022-10-30T17:06:02;17.60;99.90
44627;DHT22;30333;52.192;8.834;2022-10-30T17:08:39;19.20;99.90
44627;DHT22;30333;52.192;8.834;2022-10-30T17:11:16;16.80;99.90
44627;DHT22;30333;52.192;8.834;2022-10-30T17:13:57;16.70;99.90
44627;DHT22;30333;52.192;8.834;2022-10-30T17:16:26;16.70;99.90
44627;DHT22;30333;52.192;8.834;2022-10-30T17:18:55;16.70;99.90
44627;DHT22;30333;52.192;8.834;2022-10-30T17:21:25;16.60;99.90
44627;DHT22;30333;52.192;8.834;2022-10-30T17:23:55;16.60;99.90
44627;DHT22;30333;52.192;8.834;2022-10-30T17:26:25;16.50;99.90
44627;DHT22;30333;52.192;8.834;2022-10-30T17:31:22;16.40;99.90
44627;DHT22;30333;52.192;8.834;2022-10-30T17:34:09;16.40;99.90
44627;DHT22;30333;52.192;8.834;2022-10-30T17:36:37;16.40;99.90
44627;DHT22;30333;52.192;8.834;2022-10-30T17:39:04;16.30;99.90
44627;DHT22;30333;52.192;8.834;2022-10-30T17:41:32;16.20;99.90
44627;DHT22;30333;52.192;8.834;2022-10-30T17:46:27;16.20;99.90
44627;DHT22;30333;52.192;8.834;2022-10-30T17:48:56;16.20;99.90
44627;DHT22;30333;52.192;8.834;2022-10-30T17:51:23;16.20;99.90
44627;DHT22;30333;52.192;8.834;2022-10-30T17:53:50;16.20;99.90
44627;DHT22;30333;52.192;8.834;2022-10-30T17:56:20;16.10;99.90
44627;DHT22;30333;52.192;8.834;2022-10-30T17:58:48;16.10;99.90
44627;DHT22;30333;52.192;8.834;2022-10-30T18:01:18;16.10;99.90
44627;DHT22;30333;52.192;8.834;2022-10-30T18:03:47;16.00;99.90
44627;DHT22;30333;52.192;8.834;2022-10-30T18:06:16;16.00;99.90
44627;DHT22;30333;52.192;8.834;2022-10-30T18:08:43;15.90;99.90
44627;DHT22;30333;52.192;8.834;2022-10-30T18:11:18;15.90;99.90
44627;DHT22;30333;52.192;8.834;2022-10-30T18:13:46;15.90;99.90
44627;DHT22;30333;52.192;8.834;2022-10-30T18:16:15;15.90;99.90
44627;DHT22;30333;52.192;8.834;2022-10-30T18:21:12;15.70;99.90
44627;DHT22;30333;52.192;8.834;2022-10-30T18:23:40;15.80;99.90
44627;DHT22;30333;52.192;8.834;2022-10-30T18:26:24;15.70;99.90
44627;DHT22;30333;52.192;8.834;2022-10-30T18:28:52;15.50;99.90
44627;DHT22;30333;52.192;8.834;2022-10-30T18:31:22;15.80;99.90
44627;DHT22;30333;52.192;8.834;2022-10-30T18:33:49;15.60;99.90
44627;DHT22;30333;52.192;8.834;2022-10-30T18:36:17;15.70;99.90
44627;DHT22;30333;52.192;8.834;2022-10-30T18:41:13;15.50;99.90
44627;DHT22;30333;52.192;8.834;2022-10-30T18:46:13;15.50;99.90
44627;DHT22;30333;52.192;8.834;2022-10-30T18:48:42;15.40;99.90
44627;DHT22;30333;52.192;8.834;2022-10-30T18:51:15;15.50;99.90
44627;DHT22;30333;52.192;8.834;2022-10-30T18:53:42;17.00;99.90
44627;DHT22;30333;52.192;8.834;2022-10-30T19:01:13;15.40;99.90
44627;DHT22;30333;52.192;8.834;2022-10-30T19:03:42;16.80;99.90
44627;DHT22;30333;52.192;8.834;2022-10-30T19:06:10;15.40;99.90
44627;DHT22;30333;52.192;8.834;2022-10-30T19:11:05;15.30;99.90
44627;DHT22;30333;52.192;8.834;2022-10-30T19:15:59;15.30;99.90
44627;DHT22;30333;52.192;8.834;2022-10-30T19:20:55;15.30;99.90
44627;DHT22;30333;52.192;8.834;2022-10-30T19:26:00;15.20;99.90
44627;DHT22;30333;52.192;8.834;2022-10-30T19:28:27;15.20;99.90
44627;DHT22;30333;52.192;8.834;2022-10-30T19:35:57;15.10;99.90
44627;DHT22;30333;52.192;8.834;2022-10-30T19:48:20;15.10;99.90
44627;DHT22;30333;52.192;8.834;2022-10-30T19:51:08;15.10;99.90
44627;DHT22;30333;52.192;8.834;2022-10-30T19:56:05;15.00;99.90
44627;DHT22;30333;52.192;8.834;2022-10-30T19:58:32;15.00;99.90
44627;DHT22;30333;52.192;8.834;2022-10-30T20:03:26;15.00;99.90
44627;DHT22;30333;52.192;8.834;2022-10-30T20:08:23;15.00;99.90
44627;DHT22;30333;52.192;8.834;2022-10-30T20:10:52;14.90;99.90
44627;DHT22;30333;52.192;8.834;2022-10-30T20:13:20;14.90;99.90
44627;DHT22;30333;52.192;8.834;2022-10-30T20:15:49;14.90;99.90
44627;DHT22;30333;52.192;8.834;2022-10-30T20:18:17;14.90;99.90
44627;DHT22;30333;52.192;8.834;2022-10-30T20:20:47;14.90;99.90
44627;DHT22;30333;52.192;8.834;2022-10-30T20:23:14;14.90;99.90
44627;DHT22;30333;52.192;8.834;2022-10-30T20:25:43;14.90;99.90
44627;DHT22;30333;52.192;8.834;2022-10-30T20:28:21;16.80;99.90
44627;DHT22;30333;52.192;8.834;2022-10-30T20:35:45;14.80;99.90
44627;DHT22;30333;52.192;8.834;2022-10-30T20:38:15;14.80;99.90
44627;DHT22;30333;52.192;8.834;2022-10-30T20:40:45;14.80;99.90
44627;DHT22;30333;52.192;8.834;2022-10-30T20:43:14;16.50;99.90
44627;DHT22;30333;52.192;8.834;2022-10-30T20:53:04;14.70;99.90
44627;DHT22;30333;52.192;8.834;2022-10-30T20:55:32;14.70;99.90
44627;DHT22;30333;52.192;8.834;2022-10-30T20:58:00;14.70;99.90
44627;DHT22;30333;52.192;8.834;2022-10-30T21:13:05;14.60;99.90
44627;DHT22;30333;52.192;8.834;2022-10-30T21:15:37;14.60;99.90
44627;DHT22;30333;52.192;8.834;2022-10-30T21:18:04;14.60;99.90
44627;DHT22;30333;52.192;8.834;2022-10-30T21:20:30;14.50;99.90
44627;DHT22;30333;52.192;8.834;2022-10-30T21:27:55;14.50;99.90
44627;DHT22;30333;52.192;8.834;2022-10-30T21:30:23;14.70;99.90
44627;DHT22;30333;52.192;8.834;2022-10-30T21:40:12;14.40;99.90
44627;DHT22;30333;52.192;8.834;2022-10-30T21:45:07;14.40;99.90
44627;DHT22;30333;52.192;8.834;2022-10-30T21:47:35;14.50;99.90
44627;DHT22;30333;52.192;8.834;2022-10-30T21:57:28;14.50;99.90
44627;DHT22;30333;52.192;8.834;2022-10-30T21:59:55;14.50;99.90
44627;DHT22;30333;52.192;8.834;2022-10-30T22:02:27;15.30;99.90
44627;DHT22;30333;52.192;8.834;2022-10-30T22:04:55;15.50;99.90
44627;DHT22;30333;52.192;8.834;2022-10-30T22:09:49;14.60;99.90
44627;DHT22;30333;52.192;8.834;2022-10-30T22:14:43;14.60;99.90
44627;DHT22;30333;52.192;8.834;2022-10-30T22:22:06;14.70;99.90
44627;DHT22;30333;52.192;8.834;2022-10-30T22:24:33;14.70;99.90
44627;DHT22;30333;52.192;8.834;2022-10-30T22:29:27;14.70;99.90
44627;DHT22;30333;52.192;8.834;2022-10-30T22:31:54;15.40;99.90
44627;DHT22;30333;52.192;8.834;2022-10-30T22:34:21;14.90;99.90
44627;DHT22;30333;52.192;8.834;2022-10-30T22:36:48;14.60;99.90